createdAt,value
2022-07-29T00:01:19.246Z,96
2022-07-29T00:05:13.409Z,93
2022-07-29T00:09:16.505Z,81
2022-07-29T00:11:17.388Z,81
2022-07-29T00:15:19.456Z,72
2022-07-29T00:17:21.313Z,73
2022-07-29T00:19:22.987Z,75
2022-07-29T00:21:23.881Z,75
2022-07-29T00:27:28.573Z,75
2022-07-29T00:29:33.862Z,75
2022-07-29T00:31:31.800Z,75
2022-07-29T00:33:33.516Z,75
2022-07-29T00:37:35.993Z,75
2022-07-29T00:39:37.367Z,75
2022-07-29T00:41:38.486Z,75
2022-07-29T00:43:39.609Z,75
2022-07-29T00:47:42.598Z,75
2022-07-29T00:49:44.310Z,75
2022-07-29T00:51:45.967Z,75
2022-07-29T00:53:46.937Z,75
2022-07-29T00:55:47.973Z,75
2022-07-29T00:57:48.964Z,75
2022-07-29T00:59:50.591Z,75
2022-07-29T01:01:52.209Z,75
2022-07-29T01:03:53.711Z,75
2022-07-29T01:09:58.211Z,75
2022-07-29T01:11:59.249Z,75
2022-07-29T01:14:00.666Z,75
2022-07-29T01:16:02.143Z,75
2022-07-29T01:20:04.585Z,75
2022-07-29T01:22:06.133Z,75
2022-07-29T01:24:08.021Z,75
2022-07-29T01:26:09.575Z,75
2022-07-29T01:30:12.558Z,75
2022-07-29T01:32:20.310Z,75
2022-07-29T01:34:15.562Z,75
2022-07-29T01:36:16.792Z,75
2022-07-29T01:40:19.643Z,75
2022-07-29T01:42:21.473Z,75
2022-07-29T01:44:23.233Z,75
2022-07-29T01:46:24.697Z,75
2022-07-29T01:48:26.070Z,75
2022-07-29T01:50:27.408Z,75
2022-07-29T01:52:28.427Z,75
2022-07-29T01:54:30.264Z,75
2022-07-29T01:56:31.447Z,75
2022-07-29T01:58:33.117Z,75
2022-07-29T02:02:35.491Z,75
2022-07-29T02:04:37.157Z,75
2022-07-29T02:06:38.446Z,75
2022-07-29T02:08:39.785Z,75
2022-07-29T02:12:42.692Z,75
2022-07-29T02:14:43.594Z,75
2022-07-29T02:18:46.043Z,75
2022-07-29T02:22:49.172Z,75
2022-07-29T02:24:50.738Z,75
2022-07-29T02:28:54.089Z,75
2022-07-29T02:30:55.112Z,75
2022-07-29T02:32:56.894Z,75
2022-07-29T02:34:57.976Z,75
2022-07-29T02:36:59.624Z,75
2022-07-29T02:39:01.142Z,75
2022-07-29T02:41:02.218Z,75
2022-07-29T02:43:03.368Z,75
2022-07-29T02:45:04.807Z,75
2022-07-29T02:51:09.015Z,75
2022-07-29T02:53:10.450Z,75
2022-07-29T02:55:11.771Z,75
2022-07-29T02:57:13.415Z,75
2022-07-29T03:01:19.416Z,75
2022-07-29T03:03:16.520Z,75
2022-07-29T03:05:17.642Z,75
2022-07-29T03:07:18.601Z,75
2022-07-29T03:11:21.549Z,75
2022-07-29T03:13:22.582Z,75
2022-07-29T03:15:24.736Z,75
2022-07-29T03:17:25.892Z,75
2022-07-29T03:19:27.073Z,75
2022-07-29T03:21:28.956Z,75
2022-07-29T03:23:33.093Z,75
2022-07-29T03:27:33.081Z,75
2022-07-29T03:29:34.904Z,75
2022-07-29T03:31:36.371Z,75
2022-07-29T03:33:37.436Z,75
2022-07-29T03:35:39.231Z,75
2022-07-29T03:37:40.296Z,75
2022-07-29T03:39:42.001Z,75
2022-07-29T03:41:43.137Z,75
2022-07-29T03:43:49.181Z,75
2022-07-29T03:47:50.518Z,75
2022-07-29T03:49:49.371Z,75
2022-07-29T03:53:51.932Z,75
2022-07-29T03:55:53.491Z,75
2022-07-29T03:57:55.018Z,75
2022-07-29T03:59:56.351Z,75
2022-07-29T04:03:59.095Z,75
2022-07-29T04:06:00.698Z,75
2022-07-29T04:08:02.573Z,75
2022-07-29T04:10:04.453Z,75
2022-07-29T04:16:08.721Z,75
2022-07-29T04:18:09.871Z,75
2022-07-29T04:20:10.894Z,75
2022-07-29T04:22:12.338Z,75
2022-07-29T04:24:14.198Z,75
2022-07-29T04:26:15.422Z,75
2022-07-29T04:30:18.538Z,75
2022-07-29T04:32:19.995Z,75
2022-07-29T04:36:29.035Z,75
2022-07-29T04:38:23.415Z,75
2022-07-29T04:42:27.632Z,75
2022-07-29T04:46:29.837Z,75
2022-07-29T04:48:31.560Z,75
2022-07-29T04:50:32.606Z,75
2022-07-29T04:54:35.300Z,75
2022-07-29T04:56:36.378Z,75
2022-07-29T05:02:40.226Z,75
2022-07-29T05:04:41.545Z,75
2022-07-29T05:06:43.104Z,75
2022-07-29T05:08:44.132Z,75
2022-07-29T05:11:30.457Z,75
2022-07-29T05:13:30.196Z,75
2022-07-29T05:17:32.245Z,75
2022-07-29T05:19:33.201Z,75
2022-07-29T05:23:35.995Z,76
2022-07-29T05:27:38.902Z,76
2022-07-29T05:29:41.297Z,76
2022-07-29T05:33:42.982Z,76
2022-07-29T05:37:45.285Z,76
2022-07-29T05:39:47.576Z,71
2022-07-29T05:41:51.806Z,71
2022-07-29T05:43:48.880Z,70
2022-07-29T05:45:50.536Z,70
2022-07-29T05:47:51.489Z,70
2022-07-29T05:49:53.068Z,70
2022-07-29T05:51:54.346Z,70
2022-07-29T05:53:56.041Z,264
2022-07-29T05:55:57.458Z,264
2022-07-29T05:57:58.932Z,264
2022-07-29T05:59:59.831Z,264
2022-07-29T06:02:01.688Z,264
2022-07-29T06:06:03.596Z,264
2022-07-29T06:08:04.713Z,264
2022-07-29T06:10:06.104Z,264
2022-07-29T06:12:07.447Z,264
2022-07-29T06:16:10.050Z,264
2022-07-29T06:18:11.364Z,264
2022-07-29T06:22:13.748Z,264
2022-07-29T06:24:15.736Z,264
2022-07-29T06:26:16.792Z,264
2022-07-29T06:28:18.412Z,263
2022-07-29T06:30:19.893Z,263
2022-07-29T06:32:22.772Z,263
2022-07-29T06:34:23.545Z,263
2022-07-29T06:36:25.189Z,263
2022-07-29T06:38:31.923Z,263
2022-07-29T06:40:27.323Z,263
2022-07-29T06:42:28.793Z,263
2022-07-29T06:44:29.657Z,263
2022-07-29T06:48:32.354Z,263
2022-07-29T06:50:33.520Z,263
2022-07-29T06:52:34.965Z,263
2022-07-29T06:54:36.116Z,263
2022-07-29T06:58:38.903Z,263
2022-07-29T07:00:40.215Z,263
2022-07-29T07:02:41.686Z,263
2022-07-29T07:04:43.441Z,263
2022-07-29T07:06:44.951Z,263
2022-07-29T07:08:46.092Z,266
2022-07-29T07:10:47.097Z,266
2022-07-29T07:12:47.886Z,266
2022-07-29T07:18:52.420Z,266
2022-07-29T07:20:54.016Z,266
2022-07-29T07:22:55.349Z,266
2022-07-29T07:24:56.223Z,266
2022-07-29T07:26:57.885Z,266
2022-07-29T07:28:59.451Z,266
2022-07-29T07:31:01.183Z,266
2022-07-29T07:35:03.827Z,266
2022-07-29T07:37:05.313Z,266
2022-07-29T07:41:09.505Z,266
2022-07-29T07:43:10.408Z,261
2022-07-29T07:47:13.366Z,261
2022-07-29T07:51:16.140Z,261
2022-07-29T07:53:17.144Z,261
2022-07-29T07:55:18.726Z,261
2022-07-29T08:01:23.494Z,261
2022-07-29T08:03:25.244Z,261
2022-07-29T08:05:26.463Z,261
2022-07-29T08:07:27.822Z,261
2022-07-29T08:09:30.249Z,261
2022-07-29T08:11:30.572Z,261
2022-07-29T08:13:32.266Z,261
2022-07-29T08:15:33.501Z,261
2022-07-29T08:17:35.282Z,261
2022-07-29T08:19:36.879Z,261
2022-07-29T08:21:38.257Z,261
2022-07-29T08:23:45.933Z,261
2022-07-29T08:25:40.500Z,261
2022-07-29T08:29:43.116Z,104
2022-07-29T08:31:44.538Z,230
2022-07-29T08:33:45.843Z,230
2022-07-29T08:35:46.829Z,231
2022-07-29T08:39:50.341Z,183
2022-07-29T08:41:57.061Z,182
2022-07-29T08:43:52.277Z,182
2022-07-29T08:45:53.124Z,182
2022-07-29T08:49:54.962Z,183
2022-07-29T08:51:56.499Z,258
2022-07-29T08:55:58.860Z,258
2022-07-29T09:02:02.138Z,258
2022-07-29T09:04:03.048Z,235
2022-07-29T09:06:04.691Z,234
2022-07-29T09:08:05.625Z,234
2022-07-29T09:10:07.316Z,235
2022-07-29T09:12:08.097Z,235
2022-07-29T09:14:09.034Z,300
2022-07-29T09:16:09.908Z,300
2022-07-29T09:18:19.630Z,297
2022-07-29T09:20:12.776Z,297
2022-07-29T09:22:14.123Z,297
2022-07-29T09:24:15.039Z,277
2022-07-29T09:28:17.593Z,208
2022-07-29T09:32:19.671Z,230
2022-07-29T09:34:20.581Z,230
2022-07-29T09:38:23.283Z,231
2022-07-29T09:42:25.590Z,231
2022-07-29T09:44:27.029Z,231
2022-07-29T09:46:28.627Z,231
2022-07-29T09:48:30.247Z,233
2022-07-29T09:50:32.552Z,233
2022-07-29T09:52:33.718Z,233
2022-07-29T09:54:35.358Z,233
2022-07-29T09:56:36.423Z,69
2022-07-29T09:58:37.588Z,239
2022-07-29T10:00:39.141Z,206
2022-07-29T10:02:40.528Z,206
2022-07-29T10:04:41.709Z,206
2022-07-29T10:06:42.531Z,206
2022-07-29T10:10:45.566Z,206
2022-07-29T10:12:46.316Z,216
2022-07-29T10:16:49.356Z,216
2022-07-29T10:18:50.887Z,34
2022-07-29T10:20:52.302Z,117
2022-07-29T10:22:54.052Z,111
2022-07-29T10:24:54.581Z,111
2022-07-29T10:26:55.844Z,55
2022-07-29T10:28:56.906Z,55
2022-07-29T10:30:58.545Z,53
2022-07-29T10:32:59.731Z,360
2022-07-29T10:35:01.675Z,357
2022-07-29T10:37:03.073Z,245
2022-07-29T10:39:04.237Z,245
2022-07-29T10:41:06.713Z,183
2022-07-29T10:43:06.020Z,183
2022-07-29T10:45:07.395Z,156
2022-07-29T10:47:08.213Z,263
2022-07-29T10:49:09.223Z,263
2022-07-29T10:53:11.791Z,15
2022-07-29T10:55:13.171Z,18
2022-07-29T10:57:13.956Z,305
2022-07-29T10:59:15.373Z,110
2022-07-29T11:03:17.162Z,347
2022-07-29T11:05:18.610Z,128
2022-07-29T11:09:25.620Z,105
2022-07-29T11:13:23.380Z,162
2022-07-29T11:15:24.853Z,162
2022-07-29T11:19:30.042Z,161
2022-07-29T11:21:28.908Z,144
2022-07-29T11:23:33.608Z,144
2022-07-29T11:25:42.340Z,144
2022-07-29T11:27:33.213Z,40
2022-07-29T11:29:39.931Z,31
2022-07-29T11:31:35.737Z,31
2022-07-29T11:33:54.972Z,31
2022-07-29T11:35:39.716Z,31
2022-07-29T11:37:42.422Z,31
2022-07-29T11:39:40.129Z,32
2022-07-29T11:41:41.420Z,360
2022-07-29T11:43:43.114Z,24
2022-07-29T11:45:45.255Z,334
2022-07-29T11:47:46.726Z,334
2022-07-29T11:51:49.344Z,351
2022-07-29T11:53:52.575Z,351
2022-07-29T11:54:34.043Z,351
2022-07-29T11:56:34.816Z,351
2022-07-29T11:58:35.928Z,91
2022-07-29T12:00:37.009Z,84
2022-07-29T12:02:38.351Z,84
2022-07-29T12:04:38.965Z,84
2022-07-29T12:06:40.221Z,164
2022-07-29T12:08:41.942Z,161
2022-07-29T12:10:43.342Z,158
2022-07-29T12:12:44.190Z,158
2022-07-29T12:14:45.397Z,158
2022-07-29T12:16:46.725Z,101
2022-07-29T12:18:48.425Z,89
2022-07-29T12:22:51.102Z,89
2022-07-29T12:24:58.868Z,90
2022-07-29T12:28:56.193Z,94
2022-07-29T12:30:57.794Z,110
2022-07-29T12:32:59.474Z,110
2022-07-29T12:35:00.504Z,83
2022-07-29T12:39:02.765Z,91
2022-07-29T12:41:04.404Z,78
2022-07-29T12:45:06.212Z,4
2022-07-29T12:49:08.952Z,357
2022-07-29T12:51:10.821Z,18
2022-07-29T12:55:13.263Z,312
2022-07-29T12:57:23.360Z,94
2022-07-29T12:59:15.550Z,30
2022-07-29T13:03:18.053Z,18
2022-07-29T13:05:18.995Z,360
2022-07-29T13:07:20.012Z,30
2022-07-29T13:09:21.186Z,16
2022-07-29T13:11:22.455Z,26
2022-07-29T13:13:23.265Z,17
2022-07-29T13:15:24.302Z,33
2022-07-29T13:17:25.423Z,15
2022-07-29T13:19:26.585Z,299
2022-07-29T13:21:27.475Z,178
2022-07-29T13:23:28.706Z,33
2022-07-29T13:27:31.455Z,330
2022-07-29T13:29:33.086Z,360
2022-07-29T13:31:34.774Z,24
2022-07-29T13:33:36.368Z,84
2022-07-29T13:35:39.880Z,85
2022-07-29T13:37:39.906Z,115
2022-07-29T13:39:40.970Z,46
2022-07-29T13:43:43.930Z,27
2022-07-29T13:45:45.546Z,22
2022-07-29T13:47:49.314Z,23
2022-07-29T13:49:47.942Z,23
2022-07-29T13:51:49.542Z,28
2022-07-29T13:53:50.706Z,48
2022-07-29T13:57:53.486Z,355
2022-07-29T13:59:55.213Z,360
2022-07-29T14:01:56.782Z,21
2022-07-29T14:05:59.625Z,21
2022-07-29T14:10:03.039Z,27
2022-07-29T14:12:04.415Z,27
2022-07-29T14:14:05.500Z,360
2022-07-29T14:16:07.254Z,29
2022-07-29T14:20:09.467Z,30
2022-07-29T14:22:11.234Z,30
2022-07-29T14:26:13.221Z,286
2022-07-29T14:30:16.451Z,197
2022-07-29T14:32:17.686Z,197
2022-07-29T14:36:20.849Z,197
2022-07-29T14:38:22.678Z,249
2022-07-29T14:40:23.902Z,186
2022-07-29T14:42:25.285Z,116
2022-07-29T14:46:28.546Z,87
2022-07-29T14:48:29.737Z,82
2022-07-29T14:50:32.272Z,2
2022-07-29T14:52:33.044Z,344
2022-07-29T14:58:37.687Z,357
2022-07-29T15:03:00.738Z,8
2022-07-29T15:04:42.097Z,8
2022-07-29T15:08:44.642Z,8
2022-07-29T15:12:47.316Z,73
2022-07-29T15:14:48.898Z,73
2022-07-29T15:18:51.352Z,79
2022-07-29T15:20:52.744Z,94
2022-07-29T15:22:54.324Z,102
2022-07-29T15:24:55.516Z,117
2022-07-29T15:26:56.582Z,117
2022-07-29T15:28:58.471Z,117
2022-07-29T15:30:59.800Z,117
2022-07-29T15:33:01.489Z,117
2022-07-29T15:35:02.442Z,117
2022-07-29T15:37:04.114Z,118
2022-07-29T15:39:05.432Z,152
2022-07-29T15:41:06.908Z,152
2022-07-29T15:43:07.776Z,184
2022-07-29T15:45:09.070Z,156
2022-07-29T15:47:10.462Z,128
2022-07-29T15:51:13.748Z,128
2022-07-29T15:53:15.220Z,71
2022-07-29T15:57:17.765Z,127
2022-07-29T16:01:20.299Z,130
2022-07-29T16:03:21.830Z,130
2022-07-29T16:05:22.862Z,24
2022-07-29T16:07:24.104Z,2
2022-07-29T16:09:25.173Z,16
2022-07-29T16:13:28.690Z,358
2022-07-29T16:15:30.422Z,358
2022-07-29T16:17:31.813Z,358
2022-07-29T16:19:33.380Z,358
2022-07-29T16:21:34.293Z,1
2022-07-29T16:25:58.415Z,53
2022-07-29T16:29:39.895Z,54
2022-07-29T16:31:41.446Z,103
2022-07-29T16:33:54.457Z,103
2022-07-29T16:35:43.898Z,103
2022-07-29T16:37:45.010Z,103
2022-07-29T16:39:46.505Z,103
2022-07-29T16:43:48.929Z,103
2022-07-29T16:45:50.626Z,103
2022-07-29T16:49:52.989Z,103
2022-07-29T16:51:54.397Z,103
2022-07-29T16:55:57.059Z,99
2022-07-29T16:59:59.640Z,21
2022-07-29T17:04:01.582Z,21
2022-07-29T17:06:02.679Z,22
2022-07-29T17:08:03.991Z,22
2022-07-29T17:10:05.020Z,22
2022-07-29T17:12:05.802Z,42
2022-07-29T17:14:07.083Z,42
2022-07-29T17:16:08.503Z,42
2022-07-29T17:18:11.493Z,42
2022-07-29T17:20:11.241Z,42
2022-07-29T17:22:18.603Z,42
2022-07-29T17:24:14.253Z,42
2022-07-29T17:26:15.793Z,42
2022-07-29T17:28:16.792Z,42
2022-07-29T17:32:19.812Z,42
2022-07-29T17:34:20.835Z,42
2022-07-29T17:38:23.505Z,43
2022-07-29T17:42:26.527Z,43
2022-07-29T17:44:28.361Z,43
2022-07-29T17:46:29.508Z,43
2022-07-29T17:48:30.794Z,43
2022-07-29T17:52:33.084Z,43
2022-07-29T17:54:34.858Z,43
2022-07-29T17:58:38.137Z,43
2022-07-29T18:02:40.541Z,43
2022-07-29T18:04:41.984Z,317
2022-07-29T18:06:43.723Z,297
2022-07-29T18:08:44.970Z,297
2022-07-29T18:10:46.699Z,297
2022-07-29T18:12:48.176Z,297
2022-07-29T18:14:49.250Z,297
2022-07-29T18:16:51.000Z,297
2022-07-29T18:18:52.582Z,297
2022-07-29T18:20:54.196Z,297
2022-07-29T18:24:57.051Z,297
2022-07-29T18:26:58.835Z,297
2022-07-29T18:31:01.664Z,297
2022-07-29T18:35:04.726Z,297
2022-07-29T18:37:05.699Z,297
2022-07-29T18:39:51.099Z,297
2022-07-29T18:41:52.096Z,297
2022-07-29T18:45:54.901Z,297
2022-07-29T18:47:55.864Z,297
2022-07-29T18:49:57.402Z,297
2022-07-29T18:51:58.322Z,297
2022-07-29T18:58:02.851Z,297
2022-07-29T19:00:04.588Z,297
2022-07-29T19:02:05.795Z,297
2022-07-29T19:04:07.596Z,297
2022-07-29T19:08:10.485Z,297
2022-07-29T19:10:11.798Z,297
2022-07-29T19:12:13.083Z,297
2022-07-29T19:14:14.656Z,297
2022-07-29T19:18:17.856Z,297
2022-07-29T19:20:18.789Z,296
2022-07-29T19:22:20.608Z,296
2022-07-29T19:24:21.974Z,296
2022-07-29T19:26:23.331Z,296
2022-07-29T19:28:24.583Z,296
2022-07-29T19:30:26.007Z,296
2022-07-29T19:32:27.423Z,296
2022-07-29T19:34:28.368Z,297
2022-07-29T19:36:30.079Z,297
2022-07-29T19:38:31.669Z,297
2022-07-29T19:40:33.444Z,297
2022-07-29T19:42:34.936Z,297
2022-07-29T19:44:35.846Z,116
2022-07-29T19:46:37.152Z,116
2022-07-29T19:50:40.217Z,116
2022-07-29T19:52:41.164Z,170
2022-07-29T19:56:43.239Z,171
2022-07-29T20:00:45.962Z,6
2022-07-29T20:02:46.986Z,6
2022-07-29T20:04:48.042Z,6
2022-07-29T20:06:49.326Z,6
2022-07-29T20:08:50.270Z,6
2022-07-29T20:10:51.645Z,6
2022-07-29T20:12:53.035Z,58
2022-07-29T20:14:54.491Z,58
2022-07-29T20:16:55.413Z,58
2022-07-29T20:22:58.330Z,58
2022-07-29T20:24:59.657Z,58
2022-07-29T20:27:00.902Z,58
2022-07-29T20:29:02.135Z,28
2022-07-29T20:33:04.752Z,333
2022-07-29T20:35:06.017Z,333
2022-07-29T20:37:15.642Z,333
2022-07-29T20:39:08.946Z,333
2022-07-29T20:41:10.001Z,333
2022-07-29T20:43:11.021Z,333
2022-07-29T20:45:12.360Z,334
2022-07-29T20:49:14.162Z,334
2022-07-29T20:51:15.865Z,334
2022-07-29T20:53:16.769Z,335
2022-07-29T20:55:18.315Z,335
2022-07-29T20:59:20.820Z,336
2022-07-29T21:01:22.192Z,336
2022-07-29T21:05:25.403Z,70
2022-07-29T21:07:26.960Z,114
2022-07-29T21:09:28.329Z,98
2022-07-29T21:11:42.817Z,94
2022-07-29T21:13:31.278Z,88
2022-07-29T21:15:32.577Z,88
2022-07-29T21:17:34.151Z,209
2022-07-29T21:21:36.838Z,210
2022-07-29T21:25:39.243Z,210
2022-07-29T21:27:41.013Z,210
2022-07-29T21:31:43.999Z,210
2022-07-29T21:33:45.162Z,210
2022-07-29T21:36:10.505Z,210
2022-07-29T21:39:49.048Z,210
2022-07-29T21:41:50.051Z,210
2022-07-29T21:43:51.534Z,210
2022-07-29T21:47:54.779Z,210
2022-07-29T21:51:57.042Z,61
2022-07-29T21:53:58.501Z,61
2022-07-29T21:55:59.698Z,61
2022-07-29T21:58:00.882Z,61
2022-07-29T22:02:03.137Z,61
2022-07-29T22:04:04.475Z,61
2022-07-29T22:06:05.444Z,61
2022-07-29T22:10:08.708Z,61
2022-07-29T22:12:10.169Z,61
2022-07-29T22:14:11.405Z,61
2022-07-29T22:16:12.368Z,61
2022-07-29T22:18:13.582Z,61
2022-07-29T22:20:15.147Z,61
2022-07-29T22:22:16.252Z,61
2022-07-29T22:26:19.787Z,61
2022-07-29T22:30:23.091Z,61
2022-07-29T22:34:26.222Z,61
2022-07-29T22:36:27.232Z,61
2022-07-29T22:40:30.869Z,61
2022-07-29T22:44:31.878Z,61
2022-07-29T22:46:33.184Z,61
2022-07-29T22:50:36.130Z,61
2022-07-29T22:52:37.756Z,61
2022-07-29T22:56:40.962Z,61
2022-07-29T23:02:44.209Z,61
2022-07-29T23:04:45.821Z,61
2022-07-29T23:06:46.898Z,61
2022-07-29T23:08:48.676Z,61
2022-07-29T23:12:51.604Z,61
2022-07-29T23:14:53.364Z,61
2022-07-29T23:16:54.563Z,61
2022-07-29T23:18:56.185Z,61
2022-07-29T23:25:00.289Z,61
2022-07-29T23:27:01.966Z,61
2022-07-29T23:29:03.417Z,61
2022-07-29T23:31:05.130Z,61
2022-07-29T23:33:06.372Z,61
2022-07-29T23:35:07.273Z,61
2022-07-29T23:37:09.134Z,61
2022-07-29T23:39:10.043Z,61
2022-07-29T23:43:12.757Z,61
2022-07-29T23:45:14.213Z,61
2022-07-29T23:47:15.524Z,61
2022-07-29T23:49:17.072Z,61
2022-07-29T23:51:18.317Z,61
2022-07-29T23:55:36.102Z,61
2022-07-29T23:57:22.775Z,61
2022-07-29T23:59:23.809Z,61
